createdAt,value
2023-04-12T00:02:01.823Z,95527.72
2023-04-12T00:04:28.928Z,95531.94
2023-04-12T00:06:56.176Z,95516.22
2023-04-12T00:09:23.329Z,95523.84
2023-04-12T00:11:50.158Z,95527.25
2023-04-12T00:14:17.080Z,95524.91
2023-04-12T00:16:43.758Z,95521.00
2023-04-12T00:19:10.420Z,95512.09
2023-04-12T00:21:36.903Z,95515.25
2023-04-12T00:24:03.440Z,95505.81
2023-04-12T00:26:29.881Z,95507.41
2023-04-12T00:28:56.372Z,95492.47
2023-04-12T00:31:23.064Z,95489.59
2023-04-12T00:33:49.634Z,95492.97
2023-04-12T00:36:16.252Z,95472.81
2023-04-12T00:38:42.873Z,95495.63
2023-04-12T00:41:09.301Z,95473.88
2023-04-12T00:43:35.917Z,95497.97
2023-04-12T00:46:02.901Z,95490.38
2023-04-12T00:48:30.738Z,95485.41
2023-04-12T00:50:57.662Z,95468.41
2023-04-12T00:53:24.117Z,95473.34
2023-04-12T00:55:51.484Z,95471.50
2023-04-12T00:58:18.023Z,95478.59
2023-04-12T01:00:52.842Z,95459.72
2023-04-12T01:03:23.562Z,95470.22
2023-04-12T01:06:13.863Z,95458.16
2023-04-12T01:08:55.755Z,95454.75
2023-04-12T01:11:37.363Z,95461.56
2023-04-12T01:14:17.333Z,95459.19
2023-04-12T01:16:51.170Z,95456.59
2023-04-12T01:19:31.627Z,95461.81
2023-04-12T01:22:16.731Z,95462.09
2023-04-12T01:24:58.359Z,95463.41
2023-04-12T01:27:44.902Z,95450.31
2023-04-12T01:30:15.809Z,95453.44
2023-04-12T01:32:45.427Z,95461.31
2023-04-12T01:35:13.728Z,95448.19
2023-04-12T01:37:41.788Z,95455.03
2023-04-12T01:40:09.695Z,95455.28
2023-04-12T01:42:36.354Z,95452.91
2023-04-12T01:45:03.872Z,95450.31
2023-04-12T01:47:30.586Z,95455.03
2023-04-12T01:50:48.201Z,95468.13
2023-04-12T01:53:22.756Z,95454.50
2023-04-12T01:55:50.798Z,95446.63
2023-04-12T01:58:20.823Z,95450.06
2023-04-12T02:00:49.046Z,95450.31
2023-04-12T02:03:15.791Z,95455.81
2023-04-12T02:05:42.887Z,95452.38
2023-04-12T02:08:09.747Z,95448.44
2023-04-12T02:10:39.681Z,95437.19
2023-04-12T02:13:06.588Z,95442.44
2023-04-12T02:15:33.480Z,95445.56
2023-04-12T02:18:00.369Z,95448.47
2023-04-12T02:20:28.566Z,95435.91
2023-04-12T02:22:55.275Z,95420.97
2023-04-12T02:25:21.774Z,95437.47
2023-04-12T02:27:48.889Z,95434.59
2023-04-12T02:30:15.884Z,95442.72
2023-04-12T02:32:45.561Z,95442.97
2023-04-12T02:35:20.068Z,95437.75
2023-04-12T02:37:51.904Z,95429.34
2023-04-12T02:40:18.340Z,95439.06
2023-04-12T02:42:45.021Z,95435.88
2023-04-12T02:45:13.091Z,95433.78
2023-04-12T02:47:41.604Z,95434.06
2023-04-12T02:50:09.959Z,95439.31
2023-04-12T02:52:46.926Z,95447.16
2023-04-12T02:55:13.449Z,95424.38
2023-04-12T02:57:41.201Z,95423.59
2023-04-12T03:00:15.295Z,95438.25
2023-04-12T03:02:45.152Z,95430.69
2023-04-12T03:05:19.173Z,95426.47
2023-04-12T03:07:46.276Z,95408.66
2023-04-12T03:10:14.259Z,95415.75
2023-04-12T03:12:45.663Z,95409.19
2023-04-12T03:15:17.945Z,95411.28
2023-04-12T03:17:48.380Z,95413.13
2023-04-12T03:20:17.873Z,95406.03
2023-04-12T03:22:51.655Z,95400.03
2023-04-12T03:25:18.658Z,95388.78
2023-04-12T03:27:51.935Z,95388.50
2023-04-12T03:30:21.412Z,95388.78
2023-04-12T03:32:49.681Z,95385.38
2023-04-12T03:35:16.810Z,95390.09
2023-04-12T03:37:43.874Z,95380.94
2023-04-12T03:40:12.070Z,95393.75
2023-04-12T03:42:42.425Z,95385.38
2023-04-12T03:45:13.585Z,95380.13
2023-04-12T03:47:43.805Z,95384.84
2023-04-12T03:50:12.529Z,95377.53
2023-04-12T03:52:44.500Z,95376.47
2023-04-12T03:55:11.998Z,95382.50
2023-04-12T03:57:38.505Z,95372.53
2023-04-12T04:00:08.676Z,95365.22
2023-04-12T04:02:53.985Z,95352.66
2023-04-12T04:05:20.886Z,95359.22
2023-04-12T04:07:48.070Z,95357.09
2023-04-12T04:10:15.380Z,95355.78
2023-04-12T04:12:43.235Z,95336.94
2023-04-12T04:15:11.910Z,95333.81
2023-04-12T04:17:39.990Z,95335.13
2023-04-12T04:20:08.920Z,95330.69
2023-04-12T04:22:38.260Z,95330.66
2023-04-12T04:25:05.976Z,95329.34
2023-04-12T04:27:38.251Z,95329.09
2023-04-12T04:30:06.927Z,95339.31
2023-04-12T04:32:35.151Z,95340.34
2023-04-12T04:35:01.806Z,95330.66
2023-04-12T04:37:38.918Z,95331.72
2023-04-12T04:40:08.408Z,95329.09
2023-04-12T04:42:39.733Z,95328.31
2023-04-12T04:45:13.613Z,95322.81
2023-04-12T04:47:43.072Z,95324.91
2023-04-12T04:50:10.236Z,95321.53
2023-04-12T04:52:37.630Z,95313.13
2023-04-12T04:55:11.013Z,95309.50
2023-04-12T04:57:39.172Z,95305.03
2023-04-12T05:00:11.004Z,95309.22
2023-04-12T05:02:42.784Z,95308.97
2023-04-12T05:05:18.449Z,95313.38
2023-04-12T05:07:46.142Z,95305.28
2023-04-12T05:10:12.648Z,95287.50
2023-04-12T05:12:41.400Z,95287.50
2023-04-12T05:15:11.635Z,95304.78
2023-04-12T05:17:40.897Z,95297.97
2023-04-12T05:20:08.687Z,95292.72
2023-04-12T05:22:35.695Z,95286.47
2023-04-12T05:25:03.913Z,95287.75
2023-04-12T05:27:34.506Z,95277.03
2023-04-12T05:30:06.509Z,95255.31
2023-04-12T05:32:33.061Z,95253.50
2023-04-12T05:34:59.677Z,95264.47
2023-04-12T05:37:28.496Z,95255.59
2023-04-12T05:39:54.998Z,95253.75
2023-04-12T05:42:21.633Z,95237.78
2023-04-12T05:44:49.960Z,95243.78
2023-04-12T05:47:17.652Z,95256.34
2023-04-12T05:49:44.292Z,95253.72
2023-04-12T05:52:12.121Z,95240.13
2023-04-12T05:54:39.372Z,95238.31
2023-04-12T05:57:12.423Z,95230.94
2023-04-12T05:59:38.909Z,95222.03
2023-04-12T06:02:05.447Z,95223.13
2023-04-12T06:04:49.368Z,95222.84
2023-04-12T06:07:19.241Z,95205.59
2023-04-12T06:09:46.145Z,95218.13
2023-04-12T06:12:12.689Z,95200.34
2023-04-12T06:14:39.782Z,95207.94
2023-04-12T06:17:07.221Z,95207.63
2023-04-12T06:19:33.677Z,95207.88
2023-04-12T06:22:00.230Z,95211.78
2023-04-12T06:24:26.742Z,95208.69
2023-04-12T06:26:53.510Z,95198.19
2023-04-12T06:29:21.206Z,95208.13
2023-04-12T06:31:48.410Z,95197.66
2023-04-12T06:34:15.974Z,95201.81
2023-04-12T06:36:46.237Z,95193.22
2023-04-12T06:39:12.742Z,95182.25
2023-04-12T06:41:39.638Z,95185.88
2023-04-12T06:44:06.268Z,95186.38
2023-04-12T06:46:32.849Z,95182.66
2023-04-12T06:48:59.544Z,95165.16
2023-04-12T06:51:26.221Z,95172.72
2023-04-12T06:53:52.777Z,95181.59
2023-04-12T06:56:19.291Z,95168.50
2023-04-12T06:58:45.911Z,95164.78
2023-04-12T07:01:14.494Z,95166.34
2023-04-12T07:03:41.132Z,95132.13
2023-04-12T07:06:21.369Z,95168.91
2023-04-12T07:08:51.255Z,95154.31
2023-04-12T07:11:21.506Z,95161.38
2023-04-12T07:13:49.137Z,95152.69
2023-04-12T07:16:15.916Z,95147.47
2023-04-12T07:18:42.565Z,95145.59
2023-04-12T07:21:09.109Z,95154.50
2023-04-12T07:23:35.645Z,95151.53
2023-04-12T07:26:02.639Z,95157.28
2023-04-12T07:28:29.211Z,95155.94
2023-04-12T07:30:55.807Z,95133.75
2023-04-12T07:33:22.451Z,95150.44
2023-04-12T07:35:49.155Z,95145.69
2023-04-12T07:38:16.858Z,95137.31
2023-04-12T07:40:43.814Z,95122.66
2023-04-12T07:43:10.346Z,95136.53
2023-04-12T07:45:37.677Z,95136.94
2023-04-12T07:48:04.501Z,95114.63
2023-04-12T07:50:31.130Z,95114.63
2023-04-12T07:53:17.682Z,95112.53
2023-04-12T07:55:44.132Z,95113.22
2023-04-12T07:58:10.798Z,95095.91
2023-04-12T08:00:37.230Z,95098.63
2023-04-12T08:03:03.990Z,95066.84
2023-04-12T08:05:30.798Z,95096.28
2023-04-12T08:07:57.276Z,95088.91
2023-04-12T08:10:23.739Z,95083.22
2023-04-12T08:12:50.196Z,95097.75
2023-04-12T08:15:16.670Z,95100.09
2023-04-12T08:17:43.985Z,95075.97
2023-04-12T08:20:11.269Z,95071.75
2023-04-12T08:22:37.777Z,95082.03
2023-04-12T08:25:04.625Z,95080.13
2023-04-12T08:27:31.085Z,95078.34
2023-04-12T08:29:57.712Z,95069.78
2023-04-12T08:32:24.202Z,95066.84
2023-04-12T08:34:50.674Z,95061.09
2023-04-12T08:37:17.711Z,95056.56
2023-04-12T08:39:44.323Z,95057.72
2023-04-12T08:42:11.128Z,95044.81
2023-04-12T08:44:38.840Z,95023.44
2023-04-12T08:47:07.378Z,95026.94
2023-04-12T08:49:34.899Z,95034.31
2023-04-12T08:52:08.254Z,95031.34
2023-04-12T08:54:35.429Z,95017.44
2023-04-12T08:57:06.439Z,95015.16
2023-04-12T08:59:37.848Z,94997.78
2023-04-12T09:02:04.705Z,94999.00
2023-04-12T09:04:31.473Z,94967.63
2023-04-12T09:06:57.993Z,94977.72
2023-04-12T09:09:44.664Z,94994.66
2023-04-12T09:12:11.969Z,94993.28
2023-04-12T09:14:40.128Z,94988.84
2023-04-12T09:17:27.498Z,94997.19
2023-04-12T09:19:57.383Z,94993.47
2023-04-12T09:22:38.825Z,94992.31
2023-04-12T09:25:05.971Z,94979.88
2023-04-12T09:27:52.774Z,94980.72
2023-04-12T09:30:20.730Z,94964.75
2023-04-12T09:32:50.991Z,94974.00
2023-04-12T09:35:17.558Z,94954.16
2023-04-12T09:37:44.056Z,94959.72
2023-04-12T09:40:11.165Z,94966.50
2023-04-12T09:42:52.280Z,94947.91
2023-04-12T09:45:25.279Z,94938.19
2023-04-12T09:47:53.323Z,94931.16
2023-04-12T09:50:22.844Z,94928.22
2023-04-12T09:52:50.168Z,94915.34
2023-04-12T09:55:17.533Z,94919.66
2023-04-12T09:57:45.231Z,94921.28
2023-04-12T10:00:17.357Z,94897.66
2023-04-12T10:02:51.170Z,94919.88
2023-04-12T10:05:21.242Z,94907.00
2023-04-12T10:07:48.285Z,94907.75
2023-04-12T10:10:17.686Z,94907.53
2023-04-12T10:12:46.559Z,94909.19
2023-04-12T10:15:15.428Z,94897.91
2023-04-12T10:17:47.849Z,94898.00
2023-04-12T10:20:16.754Z,94898.38
2023-04-12T10:22:45.465Z,94881.44
2023-04-12T10:25:14.026Z,94883.78
2023-04-12T10:27:44.736Z,94883.81
2023-04-12T10:30:28.272Z,94874.72
2023-04-12T10:33:08.258Z,94881.41
2023-04-12T10:35:51.929Z,94871.66
2023-04-12T10:38:18.881Z,94862.81
2023-04-12T10:41:11.147Z,94868.88
2023-04-12T10:43:37.762Z,94859.22
2023-04-12T10:46:06.502Z,94850.09
2023-04-12T10:48:50.731Z,94856.59
2023-04-12T10:51:30.744Z,94844.63
2023-04-12T10:54:07.551Z,94839.66
2023-04-12T10:56:39.142Z,94836.56
2023-04-12T10:59:07.864Z,94827.06
2023-04-12T11:01:41.158Z,94828.34
2023-04-12T11:04:18.373Z,94827.88
2023-04-12T11:06:59.138Z,94813.56
2023-04-12T11:10:12.239Z,94813.84
2023-04-12T11:12:39.339Z,94806.50
2023-04-12T11:15:06.779Z,94797.19
2023-04-12T11:17:53.952Z,94802.41
2023-04-12T11:20:21.054Z,94804.41
2023-04-12T11:22:48.288Z,94803.34
2023-04-12T11:25:17.110Z,94798.06
2023-04-12T11:27:54.726Z,94794.38
2023-04-12T11:30:24.772Z,94801.34
2023-04-12T11:32:51.677Z,94778.84
2023-04-12T11:35:20.359Z,94763.22
2023-04-12T11:37:47.226Z,94760.50
2023-04-12T11:40:14.551Z,94779.97
2023-04-12T11:42:41.266Z,94789.44
2023-04-12T11:45:15.734Z,94765.69
2023-04-12T11:47:44.755Z,94755.47
2023-04-12T11:50:11.732Z,94777.25
2023-04-12T11:52:38.335Z,94779.53
2023-04-12T11:55:06.835Z,94777.53
2023-04-12T11:57:34.691Z,94768.72
2023-04-12T12:00:01.639Z,94770.16
2023-04-12T12:02:46.488Z,94737.09
2023-04-12T12:05:16.420Z,94779.94
2023-04-12T12:07:43.326Z,94786.38
2023-04-12T12:10:10.379Z,94783.97
2023-04-12T12:12:36.976Z,94781.44
2023-04-12T12:15:03.814Z,94769.13
2023-04-12T12:17:30.476Z,94780.41
2023-04-12T12:19:59.254Z,94786.94
2023-04-12T12:22:26.006Z,94778.28
2023-04-12T12:24:56.558Z,94753.94
2023-04-12T12:27:24.834Z,94774.84
2023-04-12T12:29:54.410Z,94780.88
2023-04-12T12:32:23.219Z,94771.19
2023-04-12T12:34:52.190Z,94772.00
2023-04-12T12:37:20.762Z,94773.69
2023-04-12T12:40:07.311Z,94761.81
2023-04-12T12:42:34.692Z,94752.59
2023-04-12T12:45:01.237Z,94743.19
2023-04-12T12:47:27.842Z,94743.03
2023-04-12T12:49:54.326Z,94733.25
2023-04-12T12:52:20.982Z,94731.06
2023-04-12T12:54:47.424Z,94736.66
2023-04-12T12:57:13.980Z,94714.28
2023-04-12T12:59:40.485Z,94744.59
2023-04-12T13:02:07.986Z,94749.22
2023-04-12T13:04:34.797Z,94747.44
2023-04-12T13:07:01.367Z,94747.13
2023-04-12T13:09:27.855Z,94747.00
2023-04-12T13:11:54.529Z,94732.59
2023-04-12T13:14:20.957Z,94728.09
2023-04-12T13:16:49.200Z,94719.09
2023-04-12T13:19:16.317Z,94725.56
2023-04-12T13:21:42.774Z,94696.22
2023-04-12T13:24:09.508Z,94730.63
2023-04-12T13:26:36.173Z,94712.59
2023-04-12T13:29:03.198Z,94714.28
2023-04-12T13:31:29.797Z,94714.53
2023-04-12T13:34:01.088Z,94717.91
2023-04-12T13:36:27.790Z,94720.22
2023-04-12T13:38:54.390Z,94717.75
2023-04-12T13:41:21.012Z,94698.66
2023-04-12T13:43:47.468Z,94702.34
2023-04-12T13:46:14.216Z,94678.94
2023-04-12T13:48:41.031Z,94704.88
2023-04-12T13:51:07.580Z,94706.94
2023-04-12T13:53:34.019Z,94694.09
2023-04-12T13:56:00.469Z,94684.78
2023-04-12T13:58:27.077Z,94690.13
2023-04-12T14:00:58.646Z,94688.22
2023-04-12T14:03:25.218Z,94695.41
2023-04-12T14:05:51.835Z,94690.03
2023-04-12T14:08:18.336Z,94678.47
2023-04-12T14:10:44.902Z,94675.78
2023-04-12T14:13:11.347Z,94681.31
2023-04-12T14:15:37.827Z,94670.97
2023-04-12T14:18:04.415Z,94678.97
2023-04-12T14:20:30.922Z,94676.50
2023-04-12T14:22:57.344Z,94633.78
2023-04-12T14:25:23.888Z,94638.53
2023-04-12T14:27:50.633Z,94645.94
2023-04-12T14:30:18.807Z,94645.22
2023-04-12T14:32:47.591Z,94621.88
2023-04-12T14:35:14.270Z,94653.81
2023-04-12T14:37:40.786Z,94640.34
2023-04-12T14:40:08.383Z,94626.72
2023-04-12T14:42:35.561Z,94634.66
2023-04-12T14:45:02.057Z,94621.38
2023-04-12T14:47:28.571Z,94635.91
2023-04-12T14:49:55.041Z,94624.81
2023-04-12T14:52:21.762Z,94610.78
2023-04-12T14:54:48.225Z,94616.66
2023-04-12T14:57:15.447Z,94629.00
2023-04-12T14:59:42.006Z,94636.84
2023-04-12T15:02:08.752Z,94625.13
2023-04-12T15:04:35.498Z,94634.06
2023-04-12T15:07:02.072Z,94635.53
2023-04-12T15:09:28.770Z,94634.31
2023-04-12T15:12:01.038Z,94618.00
2023-04-12T15:14:28.345Z,94626.59
2023-04-12T15:16:55.504Z,94620.69
2023-04-12T15:19:23.467Z,94611.75
2023-04-12T15:21:51.406Z,94604.34
2023-04-12T15:24:18.744Z,94614.22
2023-04-12T15:26:48.033Z,94619.72
2023-04-12T15:29:16.299Z,94613.53
2023-04-12T15:31:42.873Z,94622.16
2023-04-12T15:34:10.455Z,94599.25
2023-04-12T15:36:37.697Z,94618.91
2023-04-12T15:39:07.092Z,94609.97
2023-04-12T15:41:38.044Z,94606.09
2023-04-12T15:44:05.678Z,94604.09
2023-04-12T15:46:32.322Z,94592.06
2023-04-12T15:48:59.918Z,94609.28
2023-04-12T15:51:27.355Z,94612.34
2023-04-12T15:53:54.406Z,94573.63
2023-04-12T15:56:24.273Z,94598.13
2023-04-12T15:58:51.653Z,94603.88
2023-04-12T16:01:19.757Z,94588.41
2023-04-12T16:03:48.466Z,94605.09
2023-04-12T16:06:19.498Z,94588.22
2023-04-12T16:08:57.285Z,94596.81
2023-04-12T16:11:24.232Z,94595.16
2023-04-12T16:13:51.808Z,94586.31
2023-04-12T16:16:20.663Z,94595.66
2023-04-12T16:18:47.752Z,94600.97
2023-04-12T16:21:17.014Z,94592.16
2023-04-12T16:23:44.372Z,94586.72
2023-04-12T16:26:12.219Z,94606.25
2023-04-12T16:28:39.184Z,94585.06
2023-04-12T16:31:06.441Z,94605.81
2023-04-12T16:33:32.999Z,94595.50
2023-04-12T16:36:00.770Z,94595.84
2023-04-12T16:38:27.589Z,94591.41
2023-04-12T16:40:54.054Z,94588.50
2023-04-12T16:43:20.742Z,94585.84
2023-04-12T16:45:49.317Z,94579.66
2023-04-12T16:48:16.061Z,94578.25
2023-04-12T16:50:47.285Z,94572.41
2023-04-12T16:53:15.683Z,94562.59
2023-04-12T16:55:49.744Z,94579.66
2023-04-12T16:58:16.271Z,94531.06
2023-04-12T17:00:43.179Z,94578.56
2023-04-12T17:03:12.643Z,94513.22
2023-04-12T17:05:40.730Z,94580.34
2023-04-12T17:08:17.743Z,94495.88
2023-04-12T17:10:44.601Z,94430.25
2023-04-12T17:13:11.080Z,94551.31
2023-04-12T17:15:37.594Z,94442.25
2023-04-12T17:18:06.323Z,94567.28
2023-04-12T17:20:34.000Z,94499.50
2023-04-12T17:23:01.362Z,94580.50
2023-04-12T17:25:31.008Z,94560.66
2023-04-12T17:28:00.479Z,94568.44
2023-04-12T17:30:27.306Z,94574.38
2023-04-12T17:32:54.058Z,94574.53
2023-04-12T17:35:20.957Z,94571.75
2023-04-12T17:37:47.656Z,94568.44
2023-04-12T17:40:15.262Z,94562.63
2023-04-12T17:42:42.774Z,94539.59
2023-04-12T17:45:12.394Z,94560.44
2023-04-12T17:47:39.958Z,94507.81
2023-04-12T17:50:09.381Z,94549.91
2023-04-12T17:52:38.482Z,94543.59
2023-04-12T17:55:07.544Z,94563.47
2023-04-12T17:57:34.355Z,94546.75
2023-04-12T18:00:00.993Z,94562.47
2023-04-12T18:02:28.045Z,94590.41
2023-04-12T18:04:55.317Z,94559.16
2023-04-12T18:07:22.909Z,94551.97
2023-04-12T18:09:50.563Z,94535.69
2023-04-12T18:12:17.527Z,94593.31
2023-04-12T18:14:44.838Z,94549.16
2023-04-12T18:17:11.570Z,94589.25
2023-04-12T18:19:41.454Z,94595.94
2023-04-12T18:22:08.080Z,94541.13
2023-04-12T18:24:35.839Z,94607.94
2023-04-12T18:27:04.865Z,94618.19
2023-04-12T18:29:32.951Z,94612.06
2023-04-12T18:31:59.989Z,94563.22
2023-04-12T18:34:27.509Z,94609.25
2023-04-12T18:36:54.343Z,94609.03
2023-04-12T18:39:20.859Z,94539.31
2023-04-12T18:41:47.571Z,94637.56
2023-04-12T18:44:14.075Z,94635.22
2023-04-12T18:46:40.893Z,94628.06
2023-04-12T18:49:09.007Z,94667.50
2023-04-12T18:51:36.130Z,94634.75
2023-04-12T18:54:03.143Z,94653.72
2023-04-12T18:56:29.628Z,94668.78
2023-04-12T18:58:56.925Z,94681.16
2023-04-12T19:01:25.209Z,94687.69
2023-04-12T19:03:52.351Z,94685.81
2023-04-12T19:06:19.486Z,94680.06
2023-04-12T19:08:46.189Z,94678.03
2023-04-12T19:11:12.731Z,94685.31
2023-04-12T19:13:39.389Z,94675.53
2023-04-12T19:16:09.429Z,94627.81
2023-04-12T19:18:36.141Z,94683.84
2023-04-12T19:21:03.519Z,94688.56
2023-04-12T19:23:30.677Z,94576.75
2023-04-12T19:25:59.799Z,94684.19
2023-04-12T19:28:27.658Z,94697.06
2023-04-12T19:30:54.719Z,94687.91
2023-04-12T19:33:24.850Z,94640.34
2023-04-12T19:35:52.050Z,94688.03
2023-04-12T19:38:21.080Z,94681.38
2023-04-12T19:40:47.654Z,94703.72
2023-04-12T19:43:14.880Z,94707.09
2023-04-12T19:45:42.333Z,94707.88
2023-04-12T19:48:09.082Z,94649.78
2023-04-12T19:50:36.169Z,94627.41
2023-04-12T19:53:03.306Z,94686.22
2023-04-12T19:55:30.390Z,94641.84
2023-04-12T19:57:58.014Z,94681.16
2023-04-12T20:00:25.317Z,94633.25
2023-04-12T20:02:54.169Z,94607.94
2023-04-12T20:05:22.419Z,94709.19
2023-04-12T20:07:49.737Z,94699.53
2023-04-12T20:10:16.528Z,94709.94
2023-04-12T20:12:43.191Z,94701.50
2023-04-12T20:15:11.799Z,94731.69
2023-04-12T20:17:42.668Z,94734.53
2023-04-12T20:20:14.317Z,94670.94
2023-04-12T20:22:42.585Z,94728.09
2023-04-12T20:25:14.342Z,94677.56
2023-04-12T20:27:41.187Z,94730.25
2023-04-12T20:30:12.788Z,94750.97
2023-04-12T20:32:39.364Z,94740.63
2023-04-12T20:35:06.557Z,94754.88
2023-04-12T20:37:33.862Z,94637.31
2023-04-12T20:40:11.668Z,94586.63
2023-04-12T20:42:42.514Z,94668.38
2023-04-12T20:45:11.332Z,94739.41
2023-04-12T20:47:38.171Z,94722.41
2023-04-12T20:50:05.596Z,94765.94
2023-04-12T20:52:32.124Z,94736.88
2023-04-12T20:54:58.822Z,94672.97
2023-04-12T20:57:29.673Z,94653.66
2023-04-12T20:59:56.280Z,94622.28
2023-04-12T21:02:23.983Z,94778.25
2023-04-12T21:04:50.714Z,94785.06
2023-04-12T21:07:18.162Z,94768.50
2023-04-12T21:09:44.627Z,94789.44
2023-04-12T21:12:11.159Z,94795.22
2023-04-12T21:14:37.934Z,94724.13
2023-04-12T21:17:07.373Z,94791.34
2023-04-12T21:19:41.079Z,94817.91
2023-04-12T21:22:08.616Z,94832.03
2023-04-12T21:24:38.161Z,94812.94
2023-04-12T21:27:09.217Z,94812.34
2023-04-12T21:29:40.924Z,94833.75
2023-04-12T21:32:08.268Z,94828.13
2023-04-12T21:34:35.229Z,94827.44
2023-04-12T21:37:04.181Z,94823.94
2023-04-12T21:39:31.573Z,94796.13
2023-04-12T21:41:58.306Z,94804.09
2023-04-12T21:44:25.623Z,94845.44
2023-04-12T21:46:52.466Z,94833.41
2023-04-12T21:49:18.974Z,94824.44
2023-04-12T21:51:49.195Z,94802.25
2023-04-12T21:54:16.405Z,94821.13
2023-04-12T21:56:42.955Z,94776.72
2023-04-12T21:59:09.554Z,94850.53
2023-04-12T22:01:36.134Z,94852.66
2023-04-12T22:04:04.257Z,94852.28
2023-04-12T22:06:31.042Z,94850.72
2023-04-12T22:09:01.673Z,94858.91
2023-04-12T22:11:30.476Z,94836.31
2023-04-12T22:13:57.990Z,94750.75
2023-04-12T22:16:24.703Z,94806.13
2023-04-12T22:18:51.389Z,94820.53
2023-04-12T22:21:18.150Z,94845.25
2023-04-12T22:23:45.627Z,94843.59
2023-04-12T22:26:12.857Z,94820.25
2023-04-12T22:28:41.508Z,94842.31
2023-04-12T22:31:08.610Z,94842.44
2023-04-12T22:33:40.021Z,94850.50
2023-04-12T22:36:07.236Z,94855.19
2023-04-12T22:38:35.745Z,94799.66
2023-04-12T22:41:02.438Z,94826.34
2023-04-12T22:43:34.199Z,94805.31
2023-04-12T22:46:04.329Z,94791.59
2023-04-12T22:48:33.745Z,94848.44
2023-04-12T22:51:01.191Z,94828.88
2023-04-12T22:53:28.264Z,94856.31
2023-04-12T22:55:55.889Z,94866.28
2023-04-12T22:58:23.802Z,94860.03
2023-04-12T23:00:51.162Z,94853.59
2023-04-12T23:03:18.879Z,94840.84
2023-04-12T23:05:45.910Z,94844.13
2023-04-12T23:08:17.640Z,94831.56
2023-04-12T23:10:44.583Z,94832.38
2023-04-12T23:13:11.641Z,94854.25
2023-04-12T23:15:40.572Z,94855.72
2023-04-12T23:18:08.433Z,94846.88
2023-04-12T23:20:35.280Z,94841.03
2023-04-12T23:23:01.996Z,94857.09
2023-04-12T23:25:39.644Z,94838.00
2023-04-12T23:28:13.282Z,94823.22
2023-04-12T23:30:43.659Z,94819.94
2023-04-12T23:33:12.093Z,94817.31
2023-04-12T23:35:39.421Z,94799.09
2023-04-12T23:38:05.876Z,94806.47
2023-04-12T23:40:32.852Z,94811.75
2023-04-12T23:42:59.271Z,94810.56
2023-04-12T23:45:25.836Z,94834.13
2023-04-12T23:47:52.477Z,94831.50
2023-04-12T23:50:19.315Z,94810.06
2023-04-12T23:52:45.920Z,94838.38
2023-04-12T23:55:12.729Z,94837.78
2023-04-12T23:57:39.250Z,94833.72
